Time;durP1;ratioP1;P1;durP2;ratioP2;P2;SDS_P1;SDS_P2;PMS_P1;PMS_P2;Temp;Humidity;BMP_temperature;BMP_pressure;BME280_temperature;BME280_humidity;BME280_pressure;Samples;Min_cycle;Max_cycle;Signal;HPM_P1;HPM_P2
2022/09/24 00:02:12;;;;;;;;;;;;;;;;;;;;;
2022/09/24 00:05:51;;;;;;;;;;;;;;;;;;;;;
2022/09/24 00:09:19;;;;;;;13.45;9.58;;;;;;;15.69;48.64;100183.48;2087820;94;25944;-80
2022/09/24 00:12:46;;;;;;;13.13;8.98;;;;;;;15.69;48.66;100189.64;2088504;93;25898;-79
2022/09/24 00:16:31;;;;;;;10.68;8.33;;;;;;;15.69;48.66;100180.44;2080910;94;25960;-78
2022/09/24 00:20:14;;;;;;;15.53;8.70;;;;;;;15.66;48.72;100185.69;2088220;93;25833;-79
2022/09/24 00:23:42;;;;;;;13.72;9.00;;;;;;;15.62;48.70;100186.95;2089028;93;25785;-79
2022/09/24 00:27:27;;;;;;;15.53;9.50;;;;;;;15.55;48.79;100186.95;2089191;93;25775;-79
2022/09/24 00:30:51;;;;;;;10.78;8.63;;;;;;;15.53;48.79;100185.22;2049141;95;25825;-79
2022/09/24 00:34:26;;;;;;;10.87;8.17;;;;;;;15.49;48.84;100176.87;2042266;90;25848;-79
2022/09/24 00:38:28;;;;;;;10.75;9.15;;;;;;;15.46;48.91;100174.27;2089311;93;25951;-80
2022/09/24 00:41:54;;;;;;;16.48;9.90;;;;;;;15.43;48.88;100179.52;2088375;93;25732;-79
2022/09/24 00:45:29;;;;;;;12.18;8.95;;;;;;;15.40;49.00;100175.58;2105073;92;25783;-79
2022/09/24 00:49:17;;;;;;;10.55;8.40;;;;;;;15.37;49.01;100172.50;2107062;92;25772;-79
2022/09/24 00:52:54;;;;;;;13.62;9.93;;;;;;;15.33;49.00;100174.70;2106579;93;26349;-80
2022/09/24 00:56:32;;;;;;;12.53;9.88;;;;;;;15.25;49.03;100170.73;2073299;94;25777;-79
2022/09/24 01:00:09;;;;;;;17.82;10.15;;;;;;;15.19;49.12;100164.18;2090233;91;25913;-79
2022/09/24 01:03:51;;;;;;;14.05;9.73;;;;;;;15.13;49.19;100166.79;2198794;88;25706;-79
2022/09/24 01:07:38;;;;;;;;;;;;;;;;;;;;;
2022/09/24 01:11:44;;;;;;;;;;;;;;;;;;;;;
2022/09/24 01:15:19;;;;;;;12.58;10.10;;;;;;;15.06;49.24;100163.72;2138498;91;25757;-79
2022/09/24 01:23:59;;;;;;;16.85;11.20;;;;;;;15.05;49.25;100160.62;2104902;92;25782;-79
2022/09/24 01:27:51;;;;;;;14.53;11.30;;;;;;;14.98;49.19;100151.00;2099586;92;25550;-79
2022/09/24 01:31:29;;;;;;;16.57;11.45;;;;;;;14.95;49.20;100153.20;2077003;93;26118;-80
2022/09/24 01:35:13;;;;;;;19.32;11.35;;;;;;;14.91;49.22;100150.55;2101240;93;25923;-80
2022/09/24 01:38:57;;;;;;;13.35;11.22;;;;;;;14.90;49.26;100149.67;2124331;93;25985;-80
2022/09/24 01:42:19;;;;;;;14.60;10.60;;;;;;;14.85;49.27;100150.12;2119094;91;25808;-79
2022/09/24 01:46:03;;;;;;;19.17;12.55;;;;;;;14.82;49.27;100145.73;2120330;91;25889;-80
2022/09/24 01:49:26;;;;;;;13.88;11.50;;;;;;;14.78;49.27;100141.76;2124169;91;25780;-79
2022/09/24 01:53:06;;;;;;;15.68;10.85;;;;;;;14.73;49.31;100148.32;2124103;93;26047;-80
2022/09/24 01:57:06;;;;;;;17.20;11.93;;;;;;;14.68;49.43;100142.61;2125167;93;25576;-79
2022/09/24 02:00:43;;;;;;;;;;;;;;;14.67;49.39;100143.05;2140343;90;25753;-79
2022/09/24 02:04:13;;;;;;;17.77;12.00;;;;;;;14.58;49.43;100141.73;2117556;93;25918;-78
2022/09/24 02:07:57;;;;;;;16.30;11.05;;;;;;;14.52;49.50;100141.26;2131671;88;25754;-79
2022/09/24 02:11:31;;;;;;;17.92;12.10;;;;;;;14.50;49.57;100144.30;2166261;90;25480;-79
2022/09/24 02:15:11;;;;;;;17.70;12.95;;;;;;;14.48;49.53;100140.78;2196089;88;25722;-79
2022/09/24 02:18:39;;;;;;;16.05;11.85;;;;;;;14.41;49.58;100134.64;2245697;86;25881;-79
2022/09/24 02:22:11;;;;;;;16.55;11.85;;;;;;;14.36;49.67;100143.34;2284402;86;26027;-79
2022/09/24 02:25:58;;;;;;;24.80;12.88;;;;;;;14.32;49.71;100142.89;2239314;86;25685;-79
2022/09/24 02:29:23;;;;;;;;;;;;;;;14.28;49.79;100143.75;2296382;85;25696;-79
2022/09/24 02:32:51;;;;;;;17.87;12.53;;;;;;;14.23;49.88;100138.47;2322483;85;25754;-78
2022/09/24 02:36:19;;;;;;;23.27;13.30;;;;;;;14.25;49.92;100142.43;2322650;85;25702;-78
2022/09/24 02:39:50;;;;;;;16.17;11.93;;;;;;;14.24;49.88;100147.20;2321793;85;25705;-78
2022/09/24 02:43:17;;;;;;;21.30;13.03;;;;;;;14.19;49.96;100141.95;2317951;83;25916;-79
2022/09/24 02:46:49;;;;;;;19.50;13.80;;;;;;;14.21;49.82;100139.32;2323091;85;26398;-77
2022/09/24 02:50:49;;;;;;;20.17;12.53;;;;;;;14.21;49.82;100139.32;2321853;85;25682;-80
2022/09/24 02:54:23;;;;;;;21.07;13.13;;;;;;;14.21;49.88;100140.63;2286190;85;25708;-80
2022/09/24 02:58:07;;;;;;;;;;;;;;;;;;;;;
2022/09/24 03:01:41;;;;;;;19.85;13.90;;;;;;;14.16;49.94;100127.52;2299863;85;25929;-80
2022/09/24 03:05:17;;;;;;;15.30;12.05;;;;;;;14.16;49.94;100127.52;2306232;85;25899;-80
2022/09/24 03:08:43;;;;;;;19.75;13.08;;;;;;;14.16;49.84;100133.62;2228356;88;25728;-80
2022/09/24 03:12:11;;;;;;;21.52;13.68;;;;;;;14.16;49.86;100132.31;2227697;88;25940;-79
2022/09/24 03:16:00;;;;;;;20.15;12.78;;;;;;;14.15;49.86;100127.08;2229223;87;25803;-79
2022/09/24 03:19:12;;;;;;;17.70;12.93;;;;;;;14.13;49.79;100128.37;2222022;87;25795;-80
2022/09/24 03:22:51;;;;;;;18.98;13.10;;;;;;;14.03;49.83;100127.88;2230156;88;25866;-79
2022/09/24 03:26:21;;;;;;;20.55;13.83;;;;;;;14.00;49.94;100130.48;2229997;87;25926;-79
2022/09/24 03:33:43;;;;;;;17.27;12.95;;;;;;;13.88;50.01;100115.58;2230289;87;25686;-79
2022/09/24 03:37:08;;;;;;;20.32;13.75;;;;;;;13.87;50.12;100115.55;2209583;88;25696;-79
2022/09/24 03:40:40;;;;;;;25.40;14.00;;;;;;;13.83;50.13;100111.16;2206068;88;25682;-80
2022/09/24 03:44:12;;;;;;;15.83;12.43;;;;;;;13.75;50.19;100111.13;2246031;85;25746;-80
2022/09/24 03:51:23;;;;;;;15.45;11.95;;;;;;;13.78;50.22;100115.08;2124642;91;25947;-80
2022/09/24 03:55:11;;;;;;;18.00;11.83;;;;;;;13.74;50.29;100121.17;2137134;90;26089;-80
2022/09/24 03:58:46;;;;;;;20.77;13.03;;;;;;;13.74;50.32;100120.30;2059550;93;25770;-79
2022/09/24 04:02:20;;;;;;;23.27;12.82;;;;;;;13.73;50.27;100123.77;2105202;92;25819;-79
2022/09/24 04:06:01;;;;;;;15.35;12.82;;;;;;;13.72;50.30;100128.57;2107729;92;26390;-79
2022/09/24 04:13:14;;;;;;;18.45;12.50;;;;;;;13.71;50.30;100126.39;1952512;99;25876;-79
2022/09/24 04:17:04;;;;;;;19.75;11.88;;;;;;;13.61;50.26;100122.83;1952874;99;25849;-79
2022/09/24 04:20:32;;;;;;;19.73;12.78;;;;;;;13.54;50.43;100128.02;1950183;98;25879;-78
2022/09/24 04:24:04;;;;;;;17.92;12.07;;;;;;;13.37;50.45;100101.70;1954253;99;25828;-79
2022/09/24 04:27:31;;;;;;;22.00;13.50;;;;;;;13.45;50.55;100124.45;1955241;99;25951;-79
2022/09/24 04:31:04;;;;;;;20.80;14.47;;;;;;;13.44;50.57;100116.59;1912018;102;26590;-79
2022/09/24 04:34:42;;;;;;;18.10;13.15;;;;;;;13.45;50.55;100130.12;1917916;97;25842;-79
2022/09/24 04:38:17;;;;;;;17.15;12.70;;;;;;;13.40;50.62;100118.75;1941895;100;25774;-80
2022/09/24 04:42:10;;;;;;;18.23;12.98;;;;;;;13.40;50.65;100119.62;1944048;97;25818;-79
2022/09/24 04:46:03;;;;;;;19.45;12.05;;;;;;;13.39;50.73;100126.14;2051598;95;25863;-78
2022/09/24 04:49:20;;;;;;;14.45;11.25;;;;;;;13.37;50.75;100122.65;2055639;94;26198;-79
2022/09/24 04:53:16;;;;;;;;;;;;;;;;;;;;;
2022/09/24 04:56:40;;;;;;;20.43;12.37;;;;;;;13.34;50.79;100122.19;2053575;96;25709;-79
2022/09/24 05:00:18;;;;;;;13.88;11.48;;;;;;;13.30;50.83;100116.48;2099052;92;26422;-80
2022/09/24 05:03:53;;;;;;;18.42;12.28;;;;;;;13.32;50.85;100134.38;2097250;92;25732;-79
2022/09/24 05:07:26;;;;;;;18.48;12.23;;;;;;;13.33;50.82;100131.31;2113332;92;25756;-79
2022/09/24 05:11:08;;;;;;;16.42;11.78;;;;;;;13.30;50.86;100128.27;2114311;92;26404;-79
2022/09/24 05:14:41;;;;;;;15.10;11.48;;;;;;;13.30;50.87;100126.09;2115432;92;25822;-78
2022/09/24 05:18:02;;;;;;;15.73;10.47;;;;;;;13.30;50.93;100122.16;2124659;92;25715;-79
2022/09/24 05:21:23;;;;;;;16.05;10.60;;;;;;;13.34;50.93;100126.11;2148162;90;25835;-79
2022/09/24 05:24:48;;;;;;;14.60;11.00;;;;;;;13.43;50.91;100125.28;2147126;92;25787;-80
2022/09/24 05:28:14;;;;;;;11.15;9.85;;;;;;;13.50;50.79;100120.57;2222951;87;26068;-79
2022/09/24 05:31:38;;;;;;;14.47;10.13;;;;;;;13.61;50.78;100129.38;2212708;88;25808;-79
2022/09/24 05:35:24;;;;;;;11.08;9.23;;;;;;;13.77;50.58;100126.84;2210330;89;25834;-80
2022/09/24 05:38:48;;;;;;;14.68;9.40;;;;;;;13.85;50.40;100123.86;2140405;92;25793;-80
2022/09/24 05:42:24;;;;;;;12.73;10.28;;;;;;;13.88;50.32;100123.44;2191814;88;25837;-79
2022/09/24 05:45:49;;;;;;;11.57;9.33;;;;;;;13.94;50.27;100119.98;2236876;88;26410;-79
2022/09/24 05:49:21;;;;;;;11.63;9.13;;;;;;;14.03;50.22;100121.77;2240101;88;25661;-80
2022/09/24 05:52:59;;;;;;;;;;;;;;;;;;;;;
2022/09/24 05:56:27;;;;;;;12.73;9.30;;;;;;;14.12;50.02;100121.38;2238926;88;25740;-80
2022/09/24 05:59:59;;;;;;;10.60;9.08;;;;;;;14.16;49.98;100122.27;2241127;86;25774;-80
2022/09/24 06:03:31;;;;;;;;;;;;;;;14.26;49.91;100131.06;2240612;88;25715;-79
2022/09/24 06:07:09;;;;;;;11.73;8.60;;;;;;;14.34;49.86;100134.17;2242308;88;25782;-80
2022/09/24 06:10:47;;;;;;;10.10;8.73;;;;;;;14.45;49.79;100134.20;2241465;88;25874;-79
2022/09/24 06:14:18;;;;;;;8.98;8.13;;;;;;;14.54;49.62;100133.38;2242678;88;25790;-79
2022/09/24 06:17:54;;;;;;;9.78;7.42;;;;;;;14.62;49.53;100136.48;2242182;88;25802;-80
2022/09/24 06:21:42;;;;;;;10.70;8.30;;;;;;;14.70;49.39;100141.75;2241828;88;25746;-79
2022/09/24 06:25:35;;;;;;;12.20;7.72;;;;;;;14.80;49.28;100140.91;2241430;86;26326;-78
2022/09/24 06:29:13;;;;;;;8.88;7.97;;;;;;;14.91;49.17;100143.55;2086885;94;25425;-78
2022/09/24 06:32:48;;;;;;;12.37;7.55;;;;;;;15.03;49.08;100134.83;2074104;94;25953;-79
2022/09/24 06:36:22;;;;;;;11.83;9.43;;;;;;;15.16;48.97;100139.67;2095613;91;25974;-80
2022/09/24 06:39:50;;;;;;;10.93;7.40;;;;;;;15.26;48.89;100136.17;2061805;94;25796;-79
2022/09/24 06:43:27;;;;;;;8.68;7.15;;;;;;;15.32;48.74;100146.25;2061742;94;25750;-79
2022/09/24 06:46:57;;;;;;;7.53;6.92;;;;;;;15.40;48.63;100144.06;2061740;94;25914;-78
2022/09/24 06:50:43;;;;;;;11.65;7.17;;;;;;;15.50;48.56;100138.80;2057705;94;25932;-79
2022/09/24 06:54:06;;;;;;;10.82;7.25;;;;;;;15.69;48.34;100148.90;2067877;93;26070;-80
2022/09/24 06:57:33;;;;;;;8.58;6.28;;;;;;;15.91;48.10;100144.47;2092138;93;25838;-81
2022/09/24 07:01:12;;;;;;;12.85;6.55;;;;;;;16.11;47.87;100144.88;2076158;94;25762;-81
2022/09/24 07:05:03;;;;;;;8.70;6.45;;;;;;;16.31;47.69;100154.02;2104875;91;25748;-80
2022/09/24 07:08:42;;;;;;;6.90;6.20;;;;;;;16.46;47.53;100154.81;2064456;93;25710;-80
2022/09/24 07:12:07;;;;;;;7.42;6.72;;;;;;;16.62;47.27;100158.70;2043435;95;25793;-82
2022/09/24 07:16:00;;;;;;;;;;;;;;;;;;;;;
2022/09/24 07:19:26;;;;;;;6.72;5.87;;;;;;;17.22;46.64;100161.91;1950218;100;25768;-80
2022/09/24 07:26:43;;;;;;;8.45;5.90;;;;;;;18.99;44.97;100169.74;1828625;106;25812;-81
2022/09/24 07:30:25;;;;;;;7.45;5.17;;;;;;;19.79;44.25;100169.39;1803922;107;25841;-79
2022/09/24 07:37:39;;;;;;;8.53;5.37;;;;;;;22.30;41.91;100174.81;2549768;77;25510;-80
2022/09/24 07:41:19;;;;;;;9.88;5.95;;;;;;;23.70;40.53;100185.24;2511206;78;25633;-80
2022/09/24 07:44:40;;;;;;;5.35;4.95;;;;;;;25.53;38.58;100192.67;2497487;78;25614;-80
2022/09/24 07:52:03;;;;;;;4.62;4.05;;;;;;;29.79;34.19;100196.97;2414364;81;25717;-81
2022/09/24 07:55:39;;;;;;;4.70;3.80;;;;;;;31.09;32.24;100207.80;2269470;86;25768;-81
2022/09/24 07:59:19;;;;;;;4.05;3.30;;;;;;;31.48;30.87;100208.38;2223026;87;26430;-81
2022/09/24 08:06:36;;;;;;;3.75;2.60;;;;;;;31.13;29.60;100209.81;2222516;88;26540;-80
2022/09/24 08:10:04;;;;;;;3.00;2.80;;;;;;;30.67;29.51;100205.98;2107359;92;25797;-81
2022/09/24 08:13:55;;;;;;;4.65;2.30;;;;;;;30.96;29.43;100210.41;2095175;93;25790;-81
2022/09/24 08:17:20;;;;;;;2.80;2.30;;;;;;;31.00;28.98;100200.31;1986261;99;26417;-80
2022/09/24 08:25:03;;;;;;;;;;;;;;;;;;;;;
2022/09/24 08:28:46;;;;;;;;;;;;;;;;;;;;;
2022/09/24 08:32:11;;;;;;;2.77;2.00;;;;;;;33.26;27.80;100214.92;1885434;102;25945;-81
2022/09/24 08:35:53;;;;;;;3.10;1.77;;;;;;;34.46;26.91;100210.77;1832455;106;26088;-80
2022/09/24 08:39:36;;;;;;;2.25;1.52;;;;;;;35.33;25.94;100214.20;1832310;105;25349;-80
2022/09/24 08:43:53;;;;;;;1.98;1.20;;;;;;;36.08;25.03;100211.98;1830484;105;26025;-81
2022/09/24 08:47:49;;;;;;;3.02;1.37;;;;;;;36.89;24.52;100219.84;1831022;108;26550;-82
2022/09/24 08:51:46;;;;;;;;;;;;;;;;;;;;;
2022/09/24 08:55:34;;;;;;;;;;;;;;;;;;;;;
2022/09/24 08:59:05;;;;;;;1.12;1.02;;;;;;;39.98;22.05;100225.30;1917040;100;25841;-81
2022/09/24 09:03:13;;;;;;;1.45;1.30;;;;;;;40.67;21.51;100229.95;1820142;106;25871;-82
2022/09/24 09:07:23;;;;;;;1.22;0.80;;;;;;;41.14;20.95;100231.36;1837848;104;25739;-81
2022/09/24 09:11:11;;;;;;;2.65;0.98;;;;;;;41.34;20.50;100230.56;1870014;104;25901;-82
2022/09/24 09:15:08;;;;;;;1.30;1.00;;;;;;;41.69;20.24;100227.59;1895398;104;25802;-81
2022/09/24 09:18:58;;;;;;;1.20;1.10;;;;;;;41.94;19.91;100224.89;1900916;102;25933;-83
2022/09/24 09:22:38;;;;;;;0.80;0.80;;;;;;;41.68;17.37;100220.42;1899863;102;26357;-83
2022/09/24 09:26:06;;;;;;;2.20;0.90;;;;;;;40.46;16.51;100217.13;1895290;102;25851;-82
2022/09/24 09:29:32;;;;;;;4.65;0.70;;;;;;;39.77;16.38;100213.35;1892067;102;26486;-82
2022/09/24 09:33:55;;;;;;;2.75;0.75;;;;;;;39.29;16.20;100207.73;1918565;101;26013;-83
2022/09/24 09:38:22;;;;;;;1.75;0.90;;;;;;;38.81;16.07;100202.81;1940693;99;25967;-82
2022/09/24 09:50:20;;;;;;;3.77;0.95;;;;;;;37.47;16.54;100190.13;1958421;100;26092;-82
2022/09/24 09:54:18;;;;;;;;;;;;;;;;;;;;;
2022/09/24 09:58:02;;;;;;;1.10;0.90;;;;;;;36.15;16.70;100188.78;1916631;101;25936;-82
2022/09/24 10:02:01;;;;;;;4.58;1.00;;;;;;;35.58;16.59;100190.02;1909893;101;25873;-83
2022/09/24 10:06:32;;;;;;;3.95;1.20;;;;;;;34.35;17.30;100184.16;1943133;100;25791;-82
2022/09/24 10:10:29;;;;;;;1.17;1.00;;;;;;;33.35;17.77;100180.47;1902450;99;25807;-84
2022/09/24 10:14:18;;;;;;;4.12;0.90;;;;;;;32.56;18.31;100168.70;1900979;102;25845;-82
2022/09/24 10:18:11;;;;;;;1.82;1.02;;;;;;;31.71;18.77;100163.73;1793817;107;26514;-93
2022/09/24 10:21:37;;;;;;;3.85;1.32;;;;;;;30.60;19.29;100165.14;1803062;106;26200;-80
2022/09/24 10:25:12;;;;;;;6.53;0.90;;;;;;;29.77;19.96;100160.80;1809177;109;25901;-81
2022/09/24 10:32:48;;;;;;;2.65;1.40;;;;;;;28.91;20.70;100161.66;1810390;109;25532;-79
2022/09/24 10:36:32;;;;;;;3.77;1.62;;;;;;;28.10;21.19;100153.97;1799708;107;25858;-81
2022/09/24 10:40:21;;;;;;;3.45;1.85;;;;;;;27.55;21.77;100140.72;1837945;105;25861;-91
2022/09/24 10:44:10;;;;;;;2.10;1.52;;;;;;;27.02;22.46;100141.52;1797945;108;26107;-80
2022/09/24 10:48:06;;;;;;;3.87;1.90;;;;;;;26.84;22.88;100139.27;1771301;109;26048;-80
2022/09/24 10:52:22;;;;;;;2.55;1.82;;;;;;;26.96;23.24;100136.46;1837885;106;26616;-80
2022/09/24 10:56:42;;;;;;;2.37;1.52;;;;;;;26.85;23.25;100131.16;1850615;106;25899;-81
2022/09/24 11:00:50;;;;;;;2.33;1.30;;;;;;;26.76;23.63;100126.71;1872357;103;25717;-79
2022/09/24 11:05:05;;;;;;;1.25;1.15;;;;;;;26.63;24.09;100130.46;1904621;102;25866;-80
2022/09/24 11:09:02;;;;;;;1.15;0.80;;;;;;;26.64;23.57;100133.52;1924997;101;25835;-80
2022/09/24 11:13:08;;;;;;;1.10;0.68;;;;;;;26.26;22.96;100129.44;1912136;99;25806;-81
2022/09/24 11:25:44;;;;;;;;;;;;;;;;;;;;;
2022/09/24 11:39:00;;;;;;;0.72;0.55;;;;;;;26.50;23.08;100118.59;1958102;99;26108;-82
2022/09/24 11:43:30;;;;;;;;;;;;;;;;;;;;;
2022/09/24 11:47:35;;;;;;;1.62;0.82;;;;;;;26.03;22.68;100112.24;1926748;100;25814;-80
2022/09/24 11:52:10;;;;;;;0.70;0.70;;;;;;;25.84;23.48;100110.84;1930323;96;26245;-81
2022/09/24 11:55:48;;;;;;;0.90;0.62;;;;;;;26.37;23.58;100119.59;1930776;100;25849;-81
2022/09/24 12:00:10;;;;;;;;;;;;;;;;;;;;;
2022/09/24 12:04:09;;;;;;;0.70;0.70;;;;;;;27.69;23.05;100112.76;2000817;93;26046;-81
2022/09/24 12:08:10;;;;;;;0.72;0.72;;;;;;;28.30;22.83;100105.14;2059911;94;25919;-81
2022/09/24 12:12:13;;;;;;;;;;;;;;;;;;;;;
2022/09/24 12:16:04;;;;;;;0.80;0.60;;;;;;;29.02;21.99;100100.69;1952894;100;25911;-81
2022/09/24 12:23:43;;;;;;;0.60;0.60;;;;;;;28.65;20.76;100096.06;2043255;95;25866;-80
2022/09/24 12:27:53;;;;;;;4.37;0.60;;;;;;;28.17;20.98;100092.39;2033435;96;26030;-81
2022/09/24 12:40:29;;;;;;;0.80;0.60;;;;;;;28.07;20.71;100084.93;2048744;94;25936;-81
2022/09/24 12:44:50;;;;;;;0.70;0.70;;;;;;;27.19;21.06;100075.17;2039753;95;25777;-81
2022/09/24 12:48:29;;;;;;;0.75;0.60;;;;;;;26.32;21.77;100073.48;2018818;96;26053;-77
2022/09/24 12:52:39;;;;;;;0.60;0.60;;;;;;;26.48;22.43;100073.69;2065873;94;25856;-78
2022/09/24 12:56:26;;;;;;;1.65;0.80;;;;;;;26.56;22.58;100067.49;2095095;94;25756;-79
2022/09/24 13:00:03;;;;;;;2.22;0.65;;;;;;;26.56;22.39;100066.16;2038539;91;26007;-80
2022/09/24 13:03:43;;;;;;;1.05;0.78;;;;;;;25.90;22.67;100066.50;1992696;96;25817;-80
2022/09/24 13:07:44;;;;;;;2.47;0.65;;;;;;;25.81;23.00;100064.23;1983917;99;34861;-79
2022/09/24 13:19:48;;;;;;;1.47;1.00;;;;;;;25.04;23.63;100065.23;1894717;102;25990;-79
2022/09/24 13:24:00;;;;;;;5.75;5.28;;;;;;;24.20;24.04;100068.09;1829573;106;25871;-79
2022/09/24 13:27:50;;;;;;;2.30;1.12;;;;;;;23.20;24.96;100054.75;1784754;107;26161;-79
2022/09/24 13:31:54;;;;;;;;;;;;;;;;;;;;;
2022/09/24 13:49:55;;;;;;;6.55;1.27;;;;;;;20.67;28.57;100038.80;1838030;106;25782;-80
2022/09/24 13:53:48;;;;;;;5.87;1.10;;;;;;;20.45;28.87;100050.75;1830269;106;26541;-78
2022/09/24 13:57:39;;;;;;;;;;;;;;;;;;;;;
2022/09/24 14:01:31;;;;;;;;;;;;;;;;;;;;;
2022/09/24 14:05:26;;;;;;;1.27;0.98;;;;;;;20.68;29.15;100036.56;1932714;101;25830;-80
2022/09/24 14:08:59;;;;;;;1.40;1.02;;;;;;;20.85;29.23;100035.30;1866184;104;26562;-81
2022/09/24 14:13:06;;;;;;;4.62;1.10;;;;;;;20.90;28.92;100036.94;1853707;105;25855;-79
2022/09/24 14:16:37;;;;;;;1.45;1.35;;;;;;;20.81;28.73;100038.94;1846775;104;25496;-81
2022/09/24 14:20:15;;;;;;;5.35;1.15;;;;;;;20.48;29.18;100038.77;1883469;103;25770;-80
2022/09/24 14:24:33;;;;;;;;;;;;;;;;;;;;;
2022/09/24 14:28:31;;;;;;;1.60;1.10;;;;;;;20.21;29.63;100033.63;1832254;106;26043;-81
2022/09/24 14:32:34;;;;;;;0.88;0.80;;;;;;;20.10;29.87;100032.99;1862174;104;25835;-80
2022/09/24 14:36:29;;;;;;;4.33;1.02;;;;;;;20.17;30.05;100031.95;1898205;102;25813;-77
2022/09/24 14:44:32;;;;;;;3.45;1.10;;;;;;;19.79;30.40;100027.88;1779368;106;25784;-78
2022/09/24 14:48:49;;;;;;;8.13;1.47;;;;;;;19.99;30.58;100023.96;1804282;108;25857;-79
2022/09/24 14:52:49;;;;;;;3.58;1.00;;;;;;;20.01;30.47;100026.10;1790615;109;25874;-79
2022/09/24 14:56:35;;;;;;;1.55;1.30;;;;;;;19.99;30.35;100025.28;1804691;106;25923;-79
2022/09/24 15:00:11;;;;;;;1.35;1.00;;;;;;;19.91;30.17;100021.48;1815831;106;26286;-79
2022/09/24 15:04:11;;;;;;;1.70;1.30;;;;;;;19.84;30.31;100022.48;1777513;107;25932;-78
2022/09/24 15:11:33;;;;;;;1.80;1.03;;;;;;;19.75;30.79;100011.65;1753169;111;26032;-77
2022/09/24 15:19:44;;;;;;;1.45;0.98;;;;;;;19.33;31.01;100008.87;1747082;110;25912;-79
2022/09/24 15:23:28;;;;;;;;;;;;;;;;;;;;;
2022/09/24 15:27:42;;;;;;;1.57;0.88;;;;;;;19.06;31.48;100005.40;1752547;107;25881;-79
2022/09/24 15:31:02;;;;;;;1.50;1.10;;;;;;;18.87;31.89;100007.50;1749570;110;25928;-79
2022/09/24 15:34:27;;;;;;;4.12;1.25;;;;;;;18.55;32.34;100013.23;1749284;111;31627;-79
2022/09/24 15:38:09;;;;;;;2.15;1.00;;;;;;;18.40;32.59;100011.70;1751421;111;25988;-78
2022/09/24 15:41:38;;;;;;;1.10;0.90;;;;;;;18.31;32.79;100006.09;1814275;104;25796;-80
2022/09/24 15:45:26;;;;;;;1.45;1.10;;;;;;;18.29;33.14;100010.95;1827012;106;25864;-79
2022/09/24 15:49:01;;;;;;;1.25;0.90;;;;;;;18.08;33.42;100009.03;1825691;106;25936;-78
2022/09/24 15:52:42;;;;;;;1.60;1.22;;;;;;;18.02;33.55;100010.88;1861479;104;26320;-78
2022/09/24 15:56:34;;;;;;;1.37;1.10;;;;;;;17.99;33.83;100010.91;1876601;103;25835;-79
2022/09/24 16:00:24;;;;;;;1.12;0.93;;;;;;;17.80;34.04;100011.16;1883252;101;25773;-78
2022/09/24 16:04:14;;;;;;;1.82;1.15;;;;;;;17.65;34.24;100004.27;1837292;106;25829;-79
2022/09/24 16:07:53;;;;;;;4.03;1.10;;;;;;;17.47;34.55;100008.41;1828179;106;25909;-78
2022/09/24 16:15:24;;;;;;;2.90;1.50;;;;;;;17.31;35.00;100008.12;1874033;103;25846;-79
2022/09/24 16:19:21;;;;;;;4.25;1.50;;;;;;;17.32;35.20;100004.62;1907701;102;25978;-79
2022/09/24 16:23:08;;;;;;;3.62;1.20;;;;;;;17.38;35.66;100008.49;1896737;102;25777;-78
2022/09/24 16:27:04;;;;;;;;;;;;;;;;;;;;;
2022/09/24 16:30:26;;;;;;;5.22;1.92;;;;;;;17.33;35.64;100015.14;1874970;103;26061;-78
2022/09/24 16:34:26;;;;;;;2.45;1.40;;;;;;;17.28;35.53;100017.38;1869562;104;26071;-78
2022/09/24 16:38:02;;;;;;;2.85;1.35;;;;;;;17.22;35.66;100013.06;1855548;105;25946;-78
2022/09/24 16:41:39;;;;;;;3.10;1.50;;;;;;;17.20;35.91;100021.41;1850510;104;25773;-78
2022/09/24 16:45:11;;;;;;;1.72;1.52;;;;;;;17.16;36.65;100013.11;1846359;105;25862;-79
2022/09/24 16:48:44;;;;;;;1.72;1.62;;;;;;;17.09;37.25;100014.06;1834966;106;25770;-77
2022/09/24 16:52:09;;;;;;;5.97;1.77;;;;;;;16.99;37.71;100012.81;1836768;104;25989;-78
2022/09/24 16:55:54;;;;;;;2.02;1.40;;;;;;;16.90;38.08;100014.64;1852952;104;25873;-78
2022/09/24 16:59:38;;;;;;;2.58;1.60;;;;;;;16.76;38.63;100018.25;1841131;105;25827;-78
2022/09/24 17:03:14;;;;;;;7.35;2.52;;;;;;;16.67;38.97;100014.78;1909789;102;25767;-79
2022/09/24 17:06:44;;;;;;;7.47;2.22;;;;;;;16.57;39.42;100014.00;1912151;101;25890;-78
2022/09/24 17:10:26;;;;;;;3.65;1.85;;;;;;;16.52;39.66;100010.06;1950426;98;25833;-79
2022/09/24 17:17:59;;;;;;;5.78;1.77;;;;;;;16.98;40.00;100012.84;1888952;99;26469;-82
2022/09/24 17:21:31;;;;;;;3.42;1.95;;;;;;;17.60;40.36;100010.48;1987807;97;25795;-81
2022/09/24 17:25:16;;;;;;;7.55;1.62;;;;;;;18.11;40.46;100010.77;1979134;98;25842;-81
2022/09/24 17:29:10;;;;;;;3.70;2.55;;;;;;;18.51;40.27;100011.53;1938323;100;25866;-79
2022/09/24 17:33:05;;;;;;;13.75;4.05;;;;;;;18.85;40.29;100014.10;1929603;100;25819;-81
2022/09/24 17:36:49;;;;;;;5.47;2.30;;;;;;;19.18;40.12;100010.48;1937341;100;25609;-81
2022/09/24 17:40:36;;;;;;;7.47;2.12;;;;;;;19.43;40.00;100023.25;1929720;100;25706;-81
2022/09/24 17:44:24;;;;;;;8.25;3.50;;;;;;;19.64;39.96;100016.71;1901877;101;26467;-80
2022/09/24 17:52:19;;;;;;;6.30;2.60;;;;;;;19.96;40.47;100027.53;1868661;104;25812;-77
2022/09/24 17:56:20;;;;;;;;;;;;;;;;;;;;;
2022/09/24 18:07:18;;;;;;;;;;;;;;;;;;;;;
2022/09/24 18:10:52;;;;;;;;;;;;;;;;;;;;;
2022/09/24 18:14:23;;;;;;;4.45;3.33;;;;;;;19.58;39.94;100033.55;1822843;106;26049;-75
2022/09/24 18:17:46;;;;;;;4.70;3.27;;;;;;;19.49;39.99;100032.39;1824389;106;26081;-77
2022/09/24 18:21:25;;;;;;;7.03;3.20;;;;;;;19.42;39.96;100036.05;1812778;107;25924;-76
2022/09/24 18:25:08;;;;;;;3.58;3.27;;;;;;;19.33;40.00;100029.15;1748954;109;25594;-78
2022/09/24 18:28:40;;;;;;;6.12;3.52;;;;;;;19.24;40.04;100026.23;1717567;113;26018;-77
2022/09/24 18:32:07;;;;;;;6.58;3.60;;;;;;;19.20;40.06;100028.48;1763730;110;26566;-77
2022/09/24 18:35:30;;;;;;;5.85;3.72;;;;;;;19.15;40.11;100028.16;1748726;109;26027;-77
2022/09/24 18:39:41;;;;;;;4.45;3.40;;;;;;;19.11;40.18;100032.17;1787124;109;25963;-78
2022/09/24 18:43:20;;;;;;;;;;;;;;;;;;;;;
2022/09/24 18:46:34;;;;;;;4.17;3.27;;;;;;;18.98;40.36;100033.73;1778606;108;25880;-75
2022/09/24 18:49:54;;;;;;;6.70;4.30;;;;;;;18.93;40.50;100028.95;1778318;111;26532;-77
2022/09/24 18:53:18;;;;;;;9.30;4.25;;;;;;;18.99;42.22;100033.69;1778187;109;31090;-76
2022/09/24 18:56:39;;;;;;;4.10;3.70;;;;;;;19.17;42.73;100039.14;1778497;109;26622;-77
2022/09/24 19:00:48;;;;;;;9.80;4.65;;;;;;;19.24;43.02;100042.09;1774381;108;25919;-80
2022/09/24 19:03:53;;;;;;;7.22;4.50;;;;;;;19.30;42.97;100049.02;1815524;107;25963;-78
2022/09/24 19:07:18;;;;;;;10.35;4.50;;;;;;;19.18;42.67;100046.16;1827808;106;25934;-79
2022/09/24 19:10:38;;;;;;;6.25;4.37;;;;;;;19.03;42.26;100049.04;1847083;105;25838;-80
2022/09/24 19:14:10;;;;;;;8.78;3.72;;;;;;;18.88;41.95;100047.53;1827085;106;25846;-77
2022/09/24 19:17:33;;;;;;;6.85;4.05;;;;;;;18.73;41.64;100048.65;1848046;105;26059;-80
2022/09/24 19:20:55;;;;;;;8.20;3.50;;;;;;;18.61;41.42;100048.78;1851647;105;31283;-80
2022/09/24 19:24:17;;;;;;;4.17;3.75;;;;;;;18.50;41.26;100044.12;1880847;104;26047;-80
2022/09/24 19:27:39;;;;;;;8.10;3.87;;;;;;;18.39;41.11;100041.19;1882961;103;25406;-81
2022/09/24 19:31:04;;;;;;;5.87;3.90;;;;;;;18.33;41.01;100041.71;1901360;103;25919;-79
2022/09/24 19:34:27;;;;;;;7.60;4.97;;;;;;;18.25;40.94;100048.39;1908724;102;25380;-80
2022/09/24 19:37:48;;;;;;;6.70;4.55;;;;;;;18.14;40.91;100044.58;1914644;101;31127;-80
2022/09/24 19:41:25;;;;;;;6.15;5.55;;;;;;;18.12;40.93;100050.75;1990092;97;25690;-81
2022/09/24 19:44:50;;;;;;;6.37;5.78;;;;;;;18.09;40.96;100049.47;2012204;96;30936;-76
2022/09/24 19:48:11;;;;;;;7.22;5.92;;;;;;;18.09;41.04;100045.52;2014212;96;25905;-80
2022/09/24 19:51:33;;;;;;;7.17;5.92;;;;;;;18.09;41.01;100041.55;2013176;95;31005;-79
2022/09/24 19:54:54;;;;;;;7.58;5.40;;;;;;;18.08;41.06;100047.73;2031689;96;26020;-79
2022/09/24 19:58:15;;;;;;;9.40;6.58;;;;;;;18.05;41.06;100045.13;2056345;95;30974;-79
2022/09/24 20:01:43;;;;;;;7.37;6.62;;;;;;;18.00;40.98;100047.84;1967229;94;26189;-79